sensor_id;sensor_type;location;lat;lon;timestamp;temperature;humidity
666;DHT22;315;48.738;9.126;2023-10-19T00:01:15;11.40;99.90
666;DHT22;315;48.738;9.126;2023-10-19T00:03:41;11.40;99.90
666;DHT22;315;48.738;9.126;2023-10-19T00:06:09;11.40;99.90
666;DHT22;315;48.738;9.126;2023-10-19T00:08:36;11.40;99.90
666;DHT22;315;48.738;9.126;2023-10-19T00:11:08;11.40;99.90
666;DHT22;315;48.738;9.126;2023-10-19T00:13:38;11.50;99.90
666;DHT22;315;48.738;9.126;2023-10-19T00:16:05;11.50;99.90
666;DHT22;315;48.738;9.126;2023-10-19T00:18:51;11.60;99.90
666;DHT22;315;48.738;9.126;2023-10-19T00:21:18;11.70;99.90
666;DHT22;315;48.738;9.126;2023-10-19T00:23:51;11.70;99.90
666;DHT22;315;48.738;9.126;2023-10-19T00:26:20;11.80;99.90
666;DHT22;315;48.738;9.126;2023-10-19T00:28:46;11.80;99.90
666;DHT22;315;48.738;9.126;2023-10-19T00:31:15;11.90;99.90
666;DHT22;315;48.738;9.126;2023-10-19T00:33:40;11.90;99.90
666;DHT22;315;48.738;9.126;2023-10-19T00:36:07;12.00;99.90
666;DHT22;315;48.738;9.126;2023-10-19T00:38:34;12.00;99.90
666;DHT22;315;48.738;9.126;2023-10-19T00:41:00;12.00;99.90
666;DHT22;315;48.738;9.126;2023-10-19T00:43:35;12.10;99.90
666;DHT22;315;48.738;9.126;2023-10-19T00:46:11;12.10;99.90
666;DHT22;315;48.738;9.126;2023-10-19T00:48:57;12.10;99.90
666;DHT22;315;48.738;9.126;2023-10-19T00:51:52;12.20;99.90
666;DHT22;315;48.738;9.126;2023-10-19T00:54:44;12.20;99.90
666;DHT22;315;48.738;9.126;2023-10-19T00:57:18;12.20;99.90
666;DHT22;315;48.738;9.126;2023-10-19T00:59:48;12.20;99.90
666;DHT22;315;48.738;9.126;2023-10-19T01:02:25;12.20;99.90
666;DHT22;315;48.738;9.126;2023-10-19T01:04:53;12.10;99.90
666;DHT22;315;48.738;9.126;2023-10-19T01:07:22;12.20;99.90
666;DHT22;315;48.738;9.126;2023-10-19T01:09:55;12.20;99.90
666;DHT22;315;48.738;9.126;2023-10-19T01:12:25;12.30;99.90
666;DHT22;315;48.738;9.126;2023-10-19T01:15:07;12.30;99.90
666;DHT22;315;48.738;9.126;2023-10-19T01:17:37;12.30;99.90
666;DHT22;315;48.738;9.126;2023-10-19T01:20:16;12.30;99.90
666;DHT22;315;48.738;9.126;2023-10-19T01:23:08;12.30;99.90
666;DHT22;315;48.738;9.126;2023-10-19T01:25:57;12.30;99.90
666;DHT22;315;48.738;9.126;2023-10-19T01:31:15;12.40;99.90
666;DHT22;315;48.738;9.126;2023-10-19T01:33:53;12.40;99.90
666;DHT22;315;48.738;9.126;2023-10-19T01:36:23;12.50;99.90
666;DHT22;315;48.738;9.126;2023-10-19T01:38:49;12.50;99.90
666;DHT22;315;48.738;9.126;2023-10-19T01:41:18;12.60;99.90
666;DHT22;315;48.738;9.126;2023-10-19T01:43:46;12.60;99.90
666;DHT22;315;48.738;9.126;2023-10-19T01:46:13;12.60;99.90
666;DHT22;315;48.738;9.126;2023-10-19T01:48:40;12.60;99.90
666;DHT22;315;48.738;9.126;2023-10-19T01:51:07;12.60;99.90
666;DHT22;315;48.738;9.126;2023-10-19T01:53:36;12.70;99.90
666;DHT22;315;48.738;9.126;2023-10-19T01:56:05;12.70;99.90
666;DHT22;315;48.738;9.126;2023-10-19T01:58:36;12.70;99.90
666;DHT22;315;48.738;9.126;2023-10-19T02:01:11;12.70;99.90
666;DHT22;315;48.738;9.126;2023-10-19T02:03:42;12.80;99.90
666;DHT22;315;48.738;9.126;2023-10-19T02:06:09;12.80;99.90
666;DHT22;315;48.738;9.126;2023-10-19T02:08:45;12.80;99.90
666;DHT22;315;48.738;9.126;2023-10-19T02:11:13;12.80;99.90
666;DHT22;315;48.738;9.126;2023-10-19T02:13:44;12.80;99.90
666;DHT22;315;48.738;9.126;2023-10-19T02:16:12;12.80;99.90
666;DHT22;315;48.738;9.126;2023-10-19T02:18:38;12.80;99.90
666;DHT22;315;48.738;9.126;2023-10-19T02:21:04;12.80;99.90
666;DHT22;315;48.738;9.126;2023-10-19T02:23:32;12.80;99.90
666;DHT22;315;48.738;9.126;2023-10-19T02:26:00;12.80;99.90
666;DHT22;315;48.738;9.126;2023-10-19T02:28:25;12.80;99.90
666;DHT22;315;48.738;9.126;2023-10-19T02:30:56;12.70;99.90
666;DHT22;315;48.738;9.126;2023-10-19T02:33:22;12.70;99.90
666;DHT22;315;48.738;9.126;2023-10-19T02:35:48;12.70;99.90
666;DHT22;315;48.738;9.126;2023-10-19T02:38:13;12.70;99.90
666;DHT22;315;48.738;9.126;2023-10-19T02:40:39;12.60;99.90
666;DHT22;315;48.738;9.126;2023-10-19T02:43:04;12.60;99.90
666;DHT22;315;48.738;9.126;2023-10-19T02:45:31;12.60;99.90
666;DHT22;315;48.738;9.126;2023-10-19T02:47:58;12.60;99.90
666;DHT22;315;48.738;9.126;2023-10-19T02:50:23;12.60;99.90
666;DHT22;315;48.738;9.126;2023-10-19T02:52:52;12.60;99.90
666;DHT22;315;48.738;9.126;2023-10-19T02:55:18;12.60;99.90
666;DHT22;315;48.738;9.126;2023-10-19T02:57:46;12.60;99.90
666;DHT22;315;48.738;9.126;2023-10-19T03:00:12;12.60;99.90
666;DHT22;315;48.738;9.126;2023-10-19T03:02:39;12.50;99.90
666;DHT22;315;48.738;9.126;2023-10-19T03:05:05;12.50;99.90
666;DHT22;315;48.738;9.126;2023-10-19T03:07:44;12.40;99.90
666;DHT22;315;48.738;9.126;2023-10-19T03:10:10;12.40;99.90
666;DHT22;315;48.738;9.126;2023-10-19T03:12:50;12.40;99.90
666;DHT22;315;48.738;9.126;2023-10-19T03:15:15;12.40;99.90
666;DHT22;315;48.738;9.126;2023-10-19T03:17:42;12.30;99.90
666;DHT22;315;48.738;9.126;2023-10-19T03:20:08;12.30;99.90
666;DHT22;315;48.738;9.126;2023-10-19T03:22:36;12.30;99.90
666;DHT22;315;48.738;9.126;2023-10-19T03:25:05;12.30;99.90
666;DHT22;315;48.738;9.126;2023-10-19T03:27:49;12.20;99.90
666;DHT22;315;48.738;9.126;2023-10-19T03:30:14;12.30;99.90
666;DHT22;315;48.738;9.126;2023-10-19T03:32:41;12.20;99.90
666;DHT22;315;48.738;9.126;2023-10-19T03:35:07;12.20;99.90
666;DHT22;315;48.738;9.126;2023-10-19T03:37:33;12.20;99.90
666;DHT22;315;48.738;9.126;2023-10-19T03:40:00;12.10;99.90
666;DHT22;315;48.738;9.126;2023-10-19T03:42:31;12.10;99.90
666;DHT22;315;48.738;9.126;2023-10-19T03:45:09;12.10;99.90
666;DHT22;315;48.738;9.126;2023-10-19T03:47:39;12.10;99.90
666;DHT22;315;48.738;9.126;2023-10-19T03:50:05;12.10;99.90
666;DHT22;315;48.738;9.126;2023-10-19T03:52:39;12.10;99.90
666;DHT22;315;48.738;9.126;2023-10-19T03:55:05;12.10;99.90
666;DHT22;315;48.738;9.126;2023-10-19T03:57:37;12.10;99.90
666;DHT22;315;48.738;9.126;2023-10-19T04:00:07;12.10;99.90
666;DHT22;315;48.738;9.126;2023-10-19T04:02:36;12.10;99.90
666;DHT22;315;48.738;9.126;2023-10-19T04:05:04;12.10;99.90
666;DHT22;315;48.738;9.126;2023-10-19T04:07:29;12.20;99.90
666;DHT22;315;48.738;9.126;2023-10-19T04:09:57;12.20;99.90
666;DHT22;315;48.738;9.126;2023-10-19T04:12:43;12.20;99.90
666;DHT22;315;48.738;9.126;2023-10-19T04:15:10;12.30;99.90
666;DHT22;315;48.738;9.126;2023-10-19T04:17:42;12.20;99.90
666;DHT22;315;48.738;9.126;2023-10-19T04:20:09;12.20;99.90
666;DHT22;315;48.738;9.126;2023-10-19T04:22:45;12.20;99.90
666;DHT22;315;48.738;9.126;2023-10-19T04:25:12;12.30;99.90
666;DHT22;315;48.738;9.126;2023-10-19T04:27:38;12.30;99.90
666;DHT22;315;48.738;9.126;2023-10-19T04:30:05;12.30;99.90
666;DHT22;315;48.738;9.126;2023-10-19T04:32:41;12.30;99.90
666;DHT22;315;48.738;9.126;2023-10-19T04:35:07;12.30;99.90
666;DHT22;315;48.738;9.126;2023-10-19T04:37:34;12.30;99.90
666;DHT22;315;48.738;9.126;2023-10-19T04:40:00;12.30;99.90
666;DHT22;315;48.738;9.126;2023-10-19T04:42:26;12.30;99.90
666;DHT22;315;48.738;9.126;2023-10-19T04:44:54;12.30;99.90
666;DHT22;315;48.738;9.126;2023-10-19T04:47:19;12.30;99.90
666;DHT22;315;48.738;9.126;2023-10-19T04:49:45;12.30;99.90
666;DHT22;315;48.738;9.126;2023-10-19T04:52:10;12.40;99.90
666;DHT22;315;48.738;9.126;2023-10-19T04:54:36;12.40;99.90
666;DHT22;315;48.738;9.126;2023-10-19T04:57:02;12.40;99.90
666;DHT22;315;48.738;9.126;2023-10-19T04:59:28;12.40;99.90
666;DHT22;315;48.738;9.126;2023-10-19T05:01:58;12.30;99.90
666;DHT22;315;48.738;9.126;2023-10-19T05:04:27;12.30;99.90
666;DHT22;315;48.738;9.126;2023-10-19T05:06:53;12.40;99.90
666;DHT22;315;48.738;9.126;2023-10-19T05:09:19;12.30;99.90
666;DHT22;315;48.738;9.126;2023-10-19T05:11:44;12.30;99.90
666;DHT22;315;48.738;9.126;2023-10-19T05:14:12;12.30;99.90
666;DHT22;315;48.738;9.126;2023-10-19T05:16:42;12.30;99.90
666;DHT22;315;48.738;9.126;2023-10-19T05:19:07;12.40;99.90
666;DHT22;315;48.738;9.126;2023-10-19T05:21:33;12.40;99.90
666;DHT22;315;48.738;9.126;2023-10-19T05:24:00;12.40;99.90
666;DHT22;315;48.738;9.126;2023-10-19T05:26:26;12.40;99.90
666;DHT22;315;48.738;9.126;2023-10-19T05:28:52;12.40;99.90
666;DHT22;315;48.738;9.126;2023-10-19T05:31:19;12.50;99.90
666;DHT22;315;48.738;9.126;2023-10-19T05:33:45;12.40;99.90
666;DHT22;315;48.738;9.126;2023-10-19T05:36:13;12.50;99.90
666;DHT22;315;48.738;9.126;2023-10-19T05:38:40;12.40;99.90
666;DHT22;315;48.738;9.126;2023-10-19T05:41:05;12.40;99.90
666;DHT22;315;48.738;9.126;2023-10-19T05:43:31;12.50;99.90
666;DHT22;315;48.738;9.126;2023-10-19T05:45:56;12.40;99.90
666;DHT22;315;48.738;9.126;2023-10-19T05:48:22;12.40;99.90
666;DHT22;315;48.738;9.126;2023-10-19T05:50:49;12.40;99.90
666;DHT22;315;48.738;9.126;2023-10-19T05:53:15;12.40;99.90
666;DHT22;315;48.738;9.126;2023-10-19T05:55:44;12.40;99.90
666;DHT22;315;48.738;9.126;2023-10-19T05:58:09;12.40;99.90
666;DHT22;315;48.738;9.126;2023-10-19T06:00:35;12.50;99.90
666;DHT22;315;48.738;9.126;2023-10-19T06:03:01;12.50;99.90
666;DHT22;315;48.738;9.126;2023-10-19T06:05:27;12.50;99.90
666;DHT22;315;48.738;9.126;2023-10-19T06:07:53;12.50;99.90
666;DHT22;315;48.738;9.126;2023-10-19T06:10:19;12.50;99.90
666;DHT22;315;48.738;9.126;2023-10-19T06:12:47;12.50;99.90
666;DHT22;315;48.738;9.126;2023-10-19T06:15:14;12.40;99.90
666;DHT22;315;48.738;9.126;2023-10-19T06:17:40;12.50;99.90
666;DHT22;315;48.738;9.126;2023-10-19T06:20:10;12.50;99.90
666;DHT22;315;48.738;9.126;2023-10-19T06:22:46;12.50;99.90
666;DHT22;315;48.738;9.126;2023-10-19T06:25:19;12.60;99.90
666;DHT22;315;48.738;9.126;2023-10-19T06:27:47;12.60;99.90
666;DHT22;315;48.738;9.126;2023-10-19T06:30:16;12.60;99.90
666;DHT22;315;48.738;9.126;2023-10-19T06:32:52;12.60;99.90
666;DHT22;315;48.738;9.126;2023-10-19T06:35:18;12.60;99.90
666;DHT22;315;48.738;9.126;2023-10-19T06:37:44;12.70;99.90
666;DHT22;315;48.738;9.126;2023-10-19T06:40:11;12.80;99.90
666;DHT22;315;48.738;9.126;2023-10-19T06:42:46;12.90;99.90
666;DHT22;315;48.738;9.126;2023-10-19T06:45:12;13.00;99.90
666;DHT22;315;48.738;9.126;2023-10-19T06:47:45;13.00;99.90
666;DHT22;315;48.738;9.126;2023-10-19T06:50:13;13.10;99.90
666;DHT22;315;48.738;9.126;2023-10-19T06:52:41;13.10;99.90
666;DHT22;315;48.738;9.126;2023-10-19T06:55:08;13.20;99.90
666;DHT22;315;48.738;9.126;2023-10-19T06:57:48;13.20;99.90
666;DHT22;315;48.738;9.126;2023-10-19T07:00:16;13.20;99.90
666;DHT22;315;48.738;9.126;2023-10-19T07:02:48;13.20;99.90
666;DHT22;315;48.738;9.126;2023-10-19T07:05:14;13.20;99.90
666;DHT22;315;48.738;9.126;2023-10-19T07:07:44;13.30;99.90
666;DHT22;315;48.738;9.126;2023-10-19T07:10:11;13.30;99.90
666;DHT22;315;48.738;9.126;2023-10-19T07:12:42;13.30;99.90
666;DHT22;315;48.738;9.126;2023-10-19T07:15:09;13.30;99.90
666;DHT22;315;48.738;9.126;2023-10-19T07:17:42;13.40;99.90
666;DHT22;315;48.738;9.126;2023-10-19T07:20:08;13.40;99.90
666;DHT22;315;48.738;9.126;2023-10-19T07:22:47;13.40;99.90
666;DHT22;315;48.738;9.126;2023-10-19T07:25:12;13.50;99.90
666;DHT22;315;48.738;9.126;2023-10-19T07:27:38;13.50;99.90
666;DHT22;315;48.738;9.126;2023-10-19T07:30:08;13.60;99.90
666;DHT22;315;48.738;9.126;2023-10-19T07:32:35;13.70;99.90
666;DHT22;315;48.738;9.126;2023-10-19T07:35:00;13.70;99.90
666;DHT22;315;48.738;9.126;2023-10-19T07:37:26;13.80;99.90
666;DHT22;315;48.738;9.126;2023-10-19T07:39:52;13.80;99.90
666;DHT22;315;48.738;9.126;2023-10-19T07:42:22;14.00;99.90
666;DHT22;315;48.738;9.126;2023-10-19T07:44:47;14.10;99.90
666;DHT22;315;48.738;9.126;2023-10-19T07:47:13;14.20;99.90
666;DHT22;315;48.738;9.126;2023-10-19T07:49:38;14.40;99.90
666;DHT22;315;48.738;9.126;2023-10-19T07:52:05;14.50;99.90
666;DHT22;315;48.738;9.126;2023-10-19T07:54:35;14.70;99.90
666;DHT22;315;48.738;9.126;2023-10-19T07:57:04;14.90;99.90
666;DHT22;315;48.738;9.126;2023-10-19T07:59:33;14.90;99.90
666;DHT22;315;48.738;9.126;2023-10-19T08:01:59;15.00;99.90
666;DHT22;315;48.738;9.126;2023-10-19T08:04:28;14.90;99.90
666;DHT22;315;48.738;9.126;2023-10-19T08:06:53;15.10;99.90
666;DHT22;315;48.738;9.126;2023-10-19T08:09:21;15.10;99.90
666;DHT22;315;48.738;9.126;2023-10-19T08:11:48;15.20;99.90
666;DHT22;315;48.738;9.126;2023-10-19T08:14:14;15.30;99.90
666;DHT22;315;48.738;9.126;2023-10-19T08:16:40;15.50;99.90
666;DHT22;315;48.738;9.126;2023-10-19T08:19:07;15.60;99.90
666;DHT22;315;48.738;9.126;2023-10-19T08:21:32;16.10;99.90
666;DHT22;315;48.738;9.126;2023-10-19T08:24:00;16.80;99.90
666;DHT22;315;48.738;9.126;2023-10-19T08:26:30;17.60;99.90
666;DHT22;315;48.738;9.126;2023-10-19T08:28:55;18.10;99.90
666;DHT22;315;48.738;9.126;2023-10-19T08:31:21;17.90;99.90
666;DHT22;315;48.738;9.126;2023-10-19T08:33:46;18.10;99.90
666;DHT22;315;48.738;9.126;2023-10-19T08:36:17;18.70;99.90
666;DHT22;315;48.738;9.126;2023-10-19T08:38:45;19.00;99.90
666;DHT22;315;48.738;9.126;2023-10-19T08:41:11;18.90;99.90
666;DHT22;315;48.738;9.126;2023-10-19T08:43:36;19.10;99.90
666;DHT22;315;48.738;9.126;2023-10-19T08:46:05;19.30;99.90
666;DHT22;315;48.738;9.126;2023-10-19T08:48:34;19.40;99.90
666;DHT22;315;48.738;9.126;2023-10-19T08:51:02;19.70;99.90
666;DHT22;315;48.738;9.126;2023-10-19T08:53:29;20.50;99.90
666;DHT22;315;48.738;9.126;2023-10-19T08:55:56;21.20;99.90
666;DHT22;315;48.738;9.126;2023-10-19T08:58:22;21.50;99.90
666;DHT22;315;48.738;9.126;2023-10-19T09:00:49;22.00;99.90
666;DHT22;315;48.738;9.126;2023-10-19T09:03:19;22.30;99.90
666;DHT22;315;48.738;9.126;2023-10-19T09:05:45;22.50;99.90
666;DHT22;315;48.738;9.126;2023-10-19T09:08:18;22.30;99.90
666;DHT22;315;48.738;9.126;2023-10-19T09:10:45;22.50;99.90
666;DHT22;315;48.738;9.126;2023-10-19T09:13:11;21.50;99.90
666;DHT22;315;48.738;9.126;2023-10-19T09:15:39;21.70;99.90
666;DHT22;315;48.738;9.126;2023-10-19T09:18:18;21.80;99.90
666;DHT22;315;48.738;9.126;2023-10-19T09:20:49;21.80;99.90
666;DHT22;315;48.738;9.126;2023-10-19T09:23:47;21.10;99.90
666;DHT22;315;48.738;9.126;2023-10-19T09:26:12;20.60;99.90
666;DHT22;315;48.738;9.126;2023-10-19T09:28:39;20.90;99.90
666;DHT22;315;48.738;9.126;2023-10-19T09:31:05;21.40;99.90
666;DHT22;315;48.738;9.126;2023-10-19T09:33:32;21.50;99.90
666;DHT22;315;48.738;9.126;2023-10-19T09:36:03;21.60;99.90
666;DHT22;315;48.738;9.126;2023-10-19T09:38:38;22.20;99.90
666;DHT22;315;48.738;9.126;2023-10-19T09:41:04;23.40;99.90
666;DHT22;315;48.738;9.126;2023-10-19T09:43:37;23.80;99.90
666;DHT22;315;48.738;9.126;2023-10-19T09:46:08;23.70;99.90
666;DHT22;315;48.738;9.126;2023-10-19T09:48:40;23.30;99.90
666;DHT22;315;48.738;9.126;2023-10-19T09:51:08;22.80;99.90
666;DHT22;315;48.738;9.126;2023-10-19T09:53:34;22.10;99.90
666;DHT22;315;48.738;9.126;2023-10-19T09:56:02;21.30;99.90
666;DHT22;315;48.738;9.126;2023-10-19T09:58:38;20.70;99.90
666;DHT22;315;48.738;9.126;2023-10-19T10:01:06;20.00;99.90
666;DHT22;315;48.738;9.126;2023-10-19T10:03:51;19.50;99.90
666;DHT22;315;48.738;9.126;2023-10-19T10:07:04;19.00;99.90
666;DHT22;315;48.738;9.126;2023-10-19T10:09:04;18.80;99.90
666;DHT22;315;48.738;9.126;2023-10-19T10:11:29;18.40;99.90
666;DHT22;315;48.738;9.126;2023-10-19T10:13:56;17.90;99.90
666;DHT22;315;48.738;9.126;2023-10-19T10:16:27;17.70;99.90
666;DHT22;315;48.738;9.126;2023-10-19T10:18:55;17.60;99.90
666;DHT22;315;48.738;9.126;2023-10-19T10:21:24;17.50;99.90
666;DHT22;315;48.738;9.126;2023-10-19T10:23:57;17.70;99.90
666;DHT22;315;48.738;9.126;2023-10-19T10:26:27;17.90;99.90
666;DHT22;315;48.738;9.126;2023-10-19T10:31:45;18.30;99.90
666;DHT22;315;48.738;9.126;2023-10-19T10:34:57;18.40;99.90
666;DHT22;315;48.738;9.126;2023-10-19T10:37:06;18.00;99.90
666;DHT22;315;48.738;9.126;2023-10-19T10:39:34;17.70;99.90
666;DHT22;315;48.738;9.126;2023-10-19T10:42:04;17.40;99.90
666;DHT22;315;48.738;9.126;2023-10-19T10:44:47;17.20;99.90
666;DHT22;315;48.738;9.126;2023-10-19T10:47:16;17.10;99.90
666;DHT22;315;48.738;9.126;2023-10-19T10:49:58;17.00;99.90
666;DHT22;315;48.738;9.126;2023-10-19T10:52:32;17.00;99.90
666;DHT22;315;48.738;9.126;2023-10-19T10:55:09;17.10;99.90
666;DHT22;315;48.738;9.126;2023-10-19T10:57:37;17.10;99.90
666;DHT22;315;48.738;9.126;2023-10-19T11:02:42;17.30;99.90
666;DHT22;315;48.738;9.126;2023-10-19T11:05:10;17.30;99.90
666;DHT22;315;48.738;9.126;2023-10-19T11:07:38;17.30;99.90
666;DHT22;315;48.738;9.126;2023-10-19T11:10:03;17.30;99.90
666;DHT22;315;48.738;9.126;2023-10-19T11:12:29;17.20;99.90
666;DHT22;315;48.738;9.126;2023-10-19T11:14:58;17.10;99.90
666;DHT22;315;48.738;9.126;2023-10-19T11:17:42;16.90;99.90
666;DHT22;315;48.738;9.126;2023-10-19T11:20:09;16.70;99.90
666;DHT22;315;48.738;9.126;2023-10-19T11:22:48;16.50;99.90
666;DHT22;315;48.738;9.126;2023-10-19T11:25:24;16.40;99.90
666;DHT22;315;48.738;9.126;2023-10-19T11:27:54;16.20;99.90
666;DHT22;315;48.738;9.126;2023-10-19T11:30:29;16.20;99.90
666;DHT22;315;48.738;9.126;2023-10-19T11:32:55;16.10;99.90
666;DHT22;315;48.738;9.126;2023-10-19T11:35:29;16.00;99.90
666;DHT22;315;48.738;9.126;2023-10-19T11:37:57;15.90;99.90
666;DHT22;315;48.738;9.126;2023-10-19T11:40:23;15.90;99.90
666;DHT22;315;48.738;9.126;2023-10-19T11:42:49;15.90;99.90
666;DHT22;315;48.738;9.126;2023-10-19T11:45:16;15.90;99.90
666;DHT22;315;48.738;9.126;2023-10-19T11:47:45;15.90;99.90
666;DHT22;315;48.738;9.126;2023-10-19T11:50:12;16.00;99.90
666;DHT22;315;48.738;9.126;2023-10-19T11:52:44;16.10;99.90
666;DHT22;315;48.738;9.126;2023-10-19T11:55:11;16.10;99.90
666;DHT22;315;48.738;9.126;2023-10-19T11:57:39;16.10;99.90
666;DHT22;315;48.738;9.126;2023-10-19T12:00:06;16.10;99.90
666;DHT22;315;48.738;9.126;2023-10-19T12:02:36;16.20;99.90
666;DHT22;315;48.738;9.126;2023-10-19T12:05:04;16.20;99.90
666;DHT22;315;48.738;9.126;2023-10-19T12:07:29;16.20;99.90
666;DHT22;315;48.738;9.126;2023-10-19T12:09:57;16.10;99.90
666;DHT22;315;48.738;9.126;2023-10-19T12:12:23;16.00;99.90
666;DHT22;315;48.738;9.126;2023-10-19T12:14:49;15.80;99.90
666;DHT22;315;48.738;9.126;2023-10-19T12:17:15;15.80;99.90
666;DHT22;315;48.738;9.126;2023-10-19T12:19:43;15.80;99.90
666;DHT22;315;48.738;9.126;2023-10-19T12:22:08;15.70;99.90
666;DHT22;315;48.738;9.126;2023-10-19T12:24:34;15.70;99.90
666;DHT22;315;48.738;9.126;2023-10-19T12:26:59;15.70;99.90
666;DHT22;315;48.738;9.126;2023-10-19T12:29:25;15.70;99.90
666;DHT22;315;48.738;9.126;2023-10-19T12:31:51;15.70;99.90
666;DHT22;315;48.738;9.126;2023-10-19T12:34:16;15.60;99.90
666;DHT22;315;48.738;9.126;2023-10-19T12:36:42;15.70;99.90
666;DHT22;315;48.738;9.126;2023-10-19T12:39:10;15.60;99.90
666;DHT22;315;48.738;9.126;2023-10-19T12:41:41;15.60;99.90
666;DHT22;315;48.738;9.126;2023-10-19T12:44:07;15.50;99.90
666;DHT22;315;48.738;9.126;2023-10-19T12:46:37;15.50;99.90
666;DHT22;315;48.738;9.126;2023-10-19T12:49:05;15.50;99.90
666;DHT22;315;48.738;9.126;2023-10-19T12:51:34;15.50;99.90
666;DHT22;315;48.738;9.126;2023-10-19T12:54:00;15.40;99.90
666;DHT22;315;48.738;9.126;2023-10-19T12:56:28;15.40;99.90
666;DHT22;315;48.738;9.126;2023-10-19T12:58:54;15.40;99.90
666;DHT22;315;48.738;9.126;2023-10-19T13:01:20;15.50;99.90
666;DHT22;315;48.738;9.126;2023-10-19T13:03:47;15.50;99.90
666;DHT22;315;48.738;9.126;2023-10-19T13:06:15;15.50;99.90
666;DHT22;315;48.738;9.126;2023-10-19T13:08:41;15.50;99.90
666;DHT22;315;48.738;9.126;2023-10-19T13:11:07;15.50;99.90
666;DHT22;315;48.738;9.126;2023-10-19T13:13:33;15.50;99.90
666;DHT22;315;48.738;9.126;2023-10-19T13:16:02;15.50;99.90
666;DHT22;315;48.738;9.126;2023-10-19T13:18:34;15.50;99.90
666;DHT22;315;48.738;9.126;2023-10-19T13:21:00;15.60;99.90
666;DHT22;315;48.738;9.126;2023-10-19T13:23:31;15.70;99.90
666;DHT22;315;48.738;9.126;2023-10-19T13:25:59;15.70;99.90
666;DHT22;315;48.738;9.126;2023-10-19T13:28:33;15.70;99.90
666;DHT22;315;48.738;9.126;2023-10-19T13:30:59;15.70;99.90
666;DHT22;315;48.738;9.126;2023-10-19T13:33:24;15.60;99.90
666;DHT22;315;48.738;9.126;2023-10-19T13:35:50;15.60;99.90
666;DHT22;315;48.738;9.126;2023-10-19T13:38:17;15.60;99.90
666;DHT22;315;48.738;9.126;2023-10-19T13:40:45;15.60;99.90
666;DHT22;315;48.738;9.126;2023-10-19T13:43:11;15.50;99.90
666;DHT22;315;48.738;9.126;2023-10-19T13:45:41;15.50;99.90
666;DHT22;315;48.738;9.126;2023-10-19T13:48:08;15.50;99.90
666;DHT22;315;48.738;9.126;2023-10-19T13:50:35;15.50;99.90
666;DHT22;315;48.738;9.126;2023-10-19T13:53:02;15.40;99.90
666;DHT22;315;48.738;9.126;2023-10-19T13:55:30;15.40;99.90
666;DHT22;315;48.738;9.126;2023-10-19T13:57:57;15.40;99.90
666;DHT22;315;48.738;9.126;2023-10-19T14:00:23;15.40;99.90
666;DHT22;315;48.738;9.126;2023-10-19T14:02:51;15.40;99.90
666;DHT22;315;48.738;9.126;2023-10-19T14:05:17;15.50;99.90
666;DHT22;315;48.738;9.126;2023-10-19T14:07:44;15.60;99.90
666;DHT22;315;48.738;9.126;2023-10-19T14:10:12;15.60;99.90
666;DHT22;315;48.738;9.126;2023-10-19T14:12:39;15.60;99.90
666;DHT22;315;48.738;9.126;2023-10-19T14:15:18;15.60;99.90
666;DHT22;315;48.738;9.126;2023-10-19T14:17:45;15.40;99.90
666;DHT22;315;48.738;9.126;2023-10-19T14:20:12;15.40;99.90
666;DHT22;315;48.738;9.126;2023-10-19T14:22:50;15.30;99.90
666;DHT22;315;48.738;9.126;2023-10-19T14:25:16;15.30;99.90
666;DHT22;315;48.738;9.126;2023-10-19T14:27:46;15.30;99.90
666;DHT22;315;48.738;9.126;2023-10-19T14:30:15;15.20;99.90
666;DHT22;315;48.738;9.126;2023-10-19T14:32:43;15.20;99.90
666;DHT22;315;48.738;9.126;2023-10-19T14:35:10;15.30;99.90
666;DHT22;315;48.738;9.126;2023-10-19T14:37:41;15.40;99.90
666;DHT22;315;48.738;9.126;2023-10-19T14:40:09;15.30;99.90
666;DHT22;315;48.738;9.126;2023-10-19T14:42:38;15.30;99.90
666;DHT22;315;48.738;9.126;2023-10-19T14:45:08;15.20;99.90
666;DHT22;315;48.738;9.126;2023-10-19T14:47:38;15.10;99.90
666;DHT22;315;48.738;9.126;2023-10-19T14:50:10;15.10;99.90
666;DHT22;315;48.738;9.126;2023-10-19T14:52:40;15.10;99.90
666;DHT22;315;48.738;9.126;2023-10-19T14:55:06;15.10;99.90
666;DHT22;315;48.738;9.126;2023-10-19T14:57:35;15.10;99.90
666;DHT22;315;48.738;9.126;2023-10-19T15:00:06;15.10;99.90
666;DHT22;315;48.738;9.126;2023-10-19T15:02:48;15.10;99.90
666;DHT22;315;48.738;9.126;2023-10-19T15:05:15;15.20;99.90
666;DHT22;315;48.738;9.126;2023-10-19T15:07:45;15.10;99.90
666;DHT22;315;48.738;9.126;2023-10-19T15:10:12;15.10;99.90
666;DHT22;315;48.738;9.126;2023-10-19T15:12:38;15.10;99.90
666;DHT22;315;48.738;9.126;2023-10-19T15:15:06;15.10;99.90
666;DHT22;315;48.738;9.126;2023-10-19T15:17:33;15.20;99.90
666;DHT22;315;48.738;9.126;2023-10-19T15:19:58;15.30;99.90
666;DHT22;315;48.738;9.126;2023-10-19T15:22:24;15.20;99.90
666;DHT22;315;48.738;9.126;2023-10-19T15:24:51;15.20;99.90
666;DHT22;315;48.738;9.126;2023-10-19T15:27:17;15.10;99.90
666;DHT22;315;48.738;9.126;2023-10-19T15:29:44;15.10;99.90
666;DHT22;315;48.738;9.126;2023-10-19T15:32:10;15.10;99.90
666;DHT22;315;48.738;9.126;2023-10-19T15:34:35;15.10;99.90
666;DHT22;315;48.738;9.126;2023-10-19T15:37:01;15.10;99.90
666;DHT22;315;48.738;9.126;2023-10-19T15:39:27;15.10;99.90
666;DHT22;315;48.738;9.126;2023-10-19T15:41:53;15.00;99.90
666;DHT22;315;48.738;9.126;2023-10-19T15:44:18;15.00;99.90
666;DHT22;315;48.738;9.126;2023-10-19T15:46:44;15.00;99.90
666;DHT22;315;48.738;9.126;2023-10-19T15:49:11;14.90;99.90
666;DHT22;315;48.738;9.126;2023-10-19T15:51:37;14.90;99.90
666;DHT22;315;48.738;9.126;2023-10-19T15:54:03;14.90;99.90
666;DHT22;315;48.738;9.126;2023-10-19T15:56:31;14.90;99.90
666;DHT22;315;48.738;9.126;2023-10-19T15:58:56;14.90;99.90
666;DHT22;315;48.738;9.126;2023-10-19T16:01:22;14.90;99.90
666;DHT22;315;48.738;9.126;2023-10-19T16:03:47;14.90;99.90
666;DHT22;315;48.738;9.126;2023-10-19T16:06:12;15.00;99.90
666;DHT22;315;48.738;9.126;2023-10-19T16:08:38;15.00;99.90
666;DHT22;315;48.738;9.126;2023-10-19T16:11:04;15.00;99.90
666;DHT22;315;48.738;9.126;2023-10-19T16:13:29;15.00;99.90
666;DHT22;315;48.738;9.126;2023-10-19T16:15:55;15.00;99.90
666;DHT22;315;48.738;9.126;2023-10-19T16:18:21;15.00;99.90
666;DHT22;315;48.738;9.126;2023-10-19T16:20:47;15.00;99.90
666;DHT22;315;48.738;9.126;2023-10-19T16:23:12;14.90;99.90
666;DHT22;315;48.738;9.126;2023-10-19T16:25:38;14.90;99.90
666;DHT22;315;48.738;9.126;2023-10-19T16:28:04;14.90;99.90
666;DHT22;315;48.738;9.126;2023-10-19T16:30:29;14.90;99.90
666;DHT22;315;48.738;9.126;2023-10-19T16:33:00;14.90;99.90
666;DHT22;315;48.738;9.126;2023-10-19T16:35:26;14.80;99.90
666;DHT22;315;48.738;9.126;2023-10-19T16:37:51;14.90;99.90
666;DHT22;315;48.738;9.126;2023-10-19T16:40:17;14.90;99.90
666;DHT22;315;48.738;9.126;2023-10-19T16:42:43;14.90;99.90
666;DHT22;315;48.738;9.126;2023-10-19T16:45:09;14.90;99.90
666;DHT22;315;48.738;9.126;2023-10-19T16:47:37;14.90;99.90
666;DHT22;315;48.738;9.126;2023-10-19T16:50:04;14.90;99.90
666;DHT22;315;48.738;9.126;2023-10-19T16:52:34;14.90;99.90